sensor_id;sensor_type;location;lat;lon;timestamp;temperature;humidity
23556;DHT22;11956;53.184;8.578;2023-03-23T00:00:56;10.80;99.90
23556;DHT22;11956;53.184;8.578;2023-03-23T00:03:58;10.80;99.90
23556;DHT22;11956;53.184;8.578;2023-03-23T00:06:59;10.80;99.90
23556;DHT22;11956;53.184;8.578;2023-03-23T00:10:03;10.90;99.90
23556;DHT22;11956;53.184;8.578;2023-03-23T00:13:04;10.90;99.90
23556;DHT22;11956;53.184;8.578;2023-03-23T00:16:05;10.90;99.90
23556;DHT22;11956;53.184;8.578;2023-03-23T00:19:18;10.90;99.90
23556;DHT22;11956;53.184;8.578;2023-03-23T00:22:19;10.90;99.90
23556;DHT22;11956;53.184;8.578;2023-03-23T00:25:21;10.90;99.90
23556;DHT22;11956;53.184;8.578;2023-03-23T00:28:23;11.00;99.90
23556;DHT22;11956;53.184;8.578;2023-03-23T00:31:27;10.90;99.90
23556;DHT22;11956;53.184;8.578;2023-03-23T00:34:33;11.00;99.90
23556;DHT22;11956;53.184;8.578;2023-03-23T00:37:35;11.00;99.90
23556;DHT22;11956;53.184;8.578;2023-03-23T00:40:36;11.00;99.90
23556;DHT22;11956;53.184;8.578;2023-03-23T00:43:37;11.00;99.90
23556;DHT22;11956;53.184;8.578;2023-03-23T00:46:39;11.00;99.90
23556;DHT22;11956;53.184;8.578;2023-03-23T00:49:45;11.00;99.90
23556;DHT22;11956;53.184;8.578;2023-03-23T00:52:46;11.00;99.90
23556;DHT22;11956;53.184;8.578;2023-03-23T00:55:48;11.10;99.90
23556;DHT22;11956;53.184;8.578;2023-03-23T00:58:49;11.10;99.90
23556;DHT22;11956;53.184;8.578;2023-03-23T01:01:50;11.10;99.90
23556;DHT22;11956;53.184;8.578;2023-03-23T01:04:51;11.10;99.90
23556;DHT22;11956;53.184;8.578;2023-03-23T01:07:55;11.10;99.90
23556;DHT22;11956;53.184;8.578;2023-03-23T01:11:05;11.10;99.90
23556;DHT22;11956;53.184;8.578;2023-03-23T01:14:07;11.10;99.90
23556;DHT22;11956;53.184;8.578;2023-03-23T01:17:08;11.10;99.90
23556;DHT22;11956;53.184;8.578;2023-03-23T01:20:11;11.10;99.90
23556;DHT22;11956;53.184;8.578;2023-03-23T01:23:13;11.20;99.90
23556;DHT22;11956;53.184;8.578;2023-03-23T01:26:18;11.10;99.90
23556;DHT22;11956;53.184;8.578;2023-03-23T01:29:21;11.20;99.90
23556;DHT22;11956;53.184;8.578;2023-03-23T01:32:22;11.20;99.90
23556;DHT22;11956;53.184;8.578;2023-03-23T01:35:23;11.20;99.90
23556;DHT22;11956;53.184;8.578;2023-03-23T01:38:25;11.20;99.90
23556;DHT22;11956;53.184;8.578;2023-03-23T01:41:26;11.20;99.90
23556;DHT22;11956;53.184;8.578;2023-03-23T01:47:39;11.30;99.90
23556;DHT22;11956;53.184;8.578;2023-03-23T01:51:08;11.30;99.90
23556;DHT22;11956;53.184;8.578;2023-03-23T01:54:13;11.30;99.90
23556;DHT22;11956;53.184;8.578;2023-03-23T01:57:21;11.30;99.90
23556;DHT22;11956;53.184;8.578;2023-03-23T02:00:24;11.30;99.90
23556;DHT22;11956;53.184;8.578;2023-03-23T02:03:29;11.30;99.90
23556;DHT22;11956;53.184;8.578;2023-03-23T02:06:32;11.30;99.90
23556;DHT22;11956;53.184;8.578;2023-03-23T02:10:00;11.30;99.90
23556;DHT22;11956;53.184;8.578;2023-03-23T02:13:07;11.30;99.90
23556;DHT22;11956;53.184;8.578;2023-03-23T02:16:27;11.30;99.90
23556;DHT22;11956;53.184;8.578;2023-03-23T02:39:55;11.40;99.90
23556;DHT22;11956;53.184;8.578;2023-03-23T02:43:01;11.40;99.90
23556;DHT22;11956;53.184;8.578;2023-03-23T02:46:06;11.40;99.90
23556;DHT22;11956;53.184;8.578;2023-03-23T02:49:11;11.40;99.90
23556;DHT22;11956;53.184;8.578;2023-03-23T02:52:18;11.40;99.90
23556;DHT22;11956;53.184;8.578;2023-03-23T02:55:22;11.40;99.90
23556;DHT22;11956;53.184;8.578;2023-03-23T02:58:25;11.50;99.90
23556;DHT22;11956;53.184;8.578;2023-03-23T03:04:30;11.50;99.90
23556;DHT22;11956;53.184;8.578;2023-03-23T03:07:41;11.50;99.90
23556;DHT22;11956;53.184;8.578;2023-03-23T03:11:07;11.40;99.90
23556;DHT22;11956;53.184;8.578;2023-03-23T03:14:23;11.40;99.90
23556;DHT22;11956;53.184;8.578;2023-03-23T03:17:29;11.40;99.90
23556;DHT22;11956;53.184;8.578;2023-03-23T03:20:33;11.50;99.90
23556;DHT22;11956;53.184;8.578;2023-03-23T03:23:37;11.50;99.90
23556;DHT22;11956;53.184;8.578;2023-03-23T03:26:46;11.50;99.90
23556;DHT22;11956;53.184;8.578;2023-03-23T03:30:07;11.50;99.90
23556;DHT22;11956;53.184;8.578;2023-03-23T03:33:11;11.50;99.90
23556;DHT22;11956;53.184;8.578;2023-03-23T03:36:33;11.40;99.90
23556;DHT22;11956;53.184;8.578;2023-03-23T03:39:39;11.40;99.90
23556;DHT22;11956;53.184;8.578;2023-03-23T03:42:41;11.40;99.90
23556;DHT22;11956;53.184;8.578;2023-03-23T03:45:44;11.50;99.90
23556;DHT22;11956;53.184;8.578;2023-03-23T03:48:45;11.40;99.90
23556;DHT22;11956;53.184;8.578;2023-03-23T03:51:46;11.50;99.90
23556;DHT22;11956;53.184;8.578;2023-03-23T03:54:54;11.50;99.90
23556;DHT22;11956;53.184;8.578;2023-03-23T03:57:56;11.60;99.90
23556;DHT22;11956;53.184;8.578;2023-03-23T04:01:26;11.50;99.90
23556;DHT22;11956;53.184;8.578;2023-03-23T04:04:29;11.60;99.90
23556;DHT22;11956;53.184;8.578;2023-03-23T04:07:29;11.60;99.90
23556;DHT22;11956;53.184;8.578;2023-03-23T04:10:32;11.60;99.90
23556;DHT22;11956;53.184;8.578;2023-03-23T04:13:34;11.60;99.90
23556;DHT22;11956;53.184;8.578;2023-03-23T04:16:45;11.50;99.90
23556;DHT22;11956;53.184;8.578;2023-03-23T04:19:45;11.60;99.90
23556;DHT22;11956;53.184;8.578;2023-03-23T04:22:49;11.60;99.90
23556;DHT22;11956;53.184;8.578;2023-03-23T04:25:50;11.60;99.90
23556;DHT22;11956;53.184;8.578;2023-03-23T04:28:52;11.60;99.90
23556;DHT22;11956;53.184;8.578;2023-03-23T04:32:08;11.60;99.90
23556;DHT22;11956;53.184;8.578;2023-03-23T04:35:15;11.60;99.90
23556;DHT22;11956;53.184;8.578;2023-03-23T04:38:46;11.60;99.90
23556;DHT22;11956;53.184;8.578;2023-03-23T04:41:55;11.60;99.90
23556;DHT22;11956;53.184;8.578;2023-03-23T04:45:20;11.60;99.90
23556;DHT22;11956;53.184;8.578;2023-03-23T04:48:29;11.60;99.90
23556;DHT22;11956;53.184;8.578;2023-03-23T04:51:51;11.60;99.90
23556;DHT22;11956;53.184;8.578;2023-03-23T04:55:21;11.60;99.90
23556;DHT22;11956;53.184;8.578;2023-03-23T04:58:29;11.60;99.90
23556;DHT22;11956;53.184;8.578;2023-03-23T05:02:00;11.60;99.90
23556;DHT22;11956;53.184;8.578;2023-03-23T05:05:02;11.60;99.90
23556;DHT22;11956;53.184;8.578;2023-03-23T05:08:04;11.50;99.90
23556;DHT22;11956;53.184;8.578;2023-03-23T05:11:09;11.50;99.90
23556;DHT22;11956;53.184;8.578;2023-03-23T05:14:13;11.50;99.90
23556;DHT22;11956;53.184;8.578;2023-03-23T05:17:15;11.50;99.90
23556;DHT22;11956;53.184;8.578;2023-03-23T05:20:18;11.60;99.90
23556;DHT22;11956;53.184;8.578;2023-03-23T05:23:23;11.50;99.90
23556;DHT22;11956;53.184;8.578;2023-03-23T05:26:29;11.50;99.90
23556;DHT22;11956;53.184;8.578;2023-03-23T05:29:37;11.50;99.90
23556;DHT22;11956;53.184;8.578;2023-03-23T05:32:41;11.50;99.90
23556;DHT22;11956;53.184;8.578;2023-03-23T05:36:02;11.60;99.90
23556;DHT22;11956;53.184;8.578;2023-03-23T05:39:13;11.50;99.90
23556;DHT22;11956;53.184;8.578;2023-03-23T05:42:34;11.50;99.90
23556;DHT22;11956;53.184;8.578;2023-03-23T05:45:46;11.50;99.90
23556;DHT22;11956;53.184;8.578;2023-03-23T05:48:48;11.50;99.90
23556;DHT22;11956;53.184;8.578;2023-03-23T05:51:51;11.50;99.90
23556;DHT22;11956;53.184;8.578;2023-03-23T05:54:53;11.50;99.90
23556;DHT22;11956;53.184;8.578;2023-03-23T05:57:58;11.50;99.90
23556;DHT22;11956;53.184;8.578;2023-03-23T06:01:06;11.40;99.90
23556;DHT22;11956;53.184;8.578;2023-03-23T06:04:08;11.50;99.90
23556;DHT22;11956;53.184;8.578;2023-03-23T06:07:20;11.50;99.90
23556;DHT22;11956;53.184;8.578;2023-03-23T06:10:29;11.50;99.90
23556;DHT22;11956;53.184;8.578;2023-03-23T06:13:36;11.50;99.90
23556;DHT22;11956;53.184;8.578;2023-03-23T06:16:41;11.50;99.90
23556;DHT22;11956;53.184;8.578;2023-03-23T06:19:46;11.60;99.90
23556;DHT22;11956;53.184;8.578;2023-03-23T06:22:51;11.70;99.90
23556;DHT22;11956;53.184;8.578;2023-03-23T06:26:06;11.90;99.90
23556;DHT22;11956;53.184;8.578;2023-03-23T06:29:09;12.20;99.90
23556;DHT22;11956;53.184;8.578;2023-03-23T06:32:19;12.40;99.90
23556;DHT22;11956;53.184;8.578;2023-03-23T06:35:20;12.60;99.90
23556;DHT22;11956;53.184;8.578;2023-03-23T06:38:43;12.80;99.90
23556;DHT22;11956;53.184;8.578;2023-03-23T06:41:45;12.90;99.90
23556;DHT22;11956;53.184;8.578;2023-03-23T06:44:46;12.90;99.90
23556;DHT22;11956;53.184;8.578;2023-03-23T06:47:48;12.90;99.90
23556;DHT22;11956;53.184;8.578;2023-03-23T06:50:49;12.80;99.90
23556;DHT22;11956;53.184;8.578;2023-03-23T06:53:52;12.70;99.90
23556;DHT22;11956;53.184;8.578;2023-03-23T06:56:53;12.50;99.90
23556;DHT22;11956;53.184;8.578;2023-03-23T06:59:54;12.40;99.90
23556;DHT22;11956;53.184;8.578;2023-03-23T07:02:58;12.20;99.90
23556;DHT22;11956;53.184;8.578;2023-03-23T07:06:00;12.10;99.90
23556;DHT22;11956;53.184;8.578;2023-03-23T07:09:05;12.00;99.90
23556;DHT22;11956;53.184;8.578;2023-03-23T07:12:07;11.90;99.90
23556;DHT22;11956;53.184;8.578;2023-03-23T07:15:14;11.80;99.90
23556;DHT22;11956;53.184;8.578;2023-03-23T07:18:20;11.60;99.90
23556;DHT22;11956;53.184;8.578;2023-03-23T07:21:23;11.60;99.90
23556;DHT22;11956;53.184;8.578;2023-03-23T07:24:24;11.50;99.90
23556;DHT22;11956;53.184;8.578;2023-03-23T07:27:45;11.40;99.90
23556;DHT22;11956;53.184;8.578;2023-03-23T07:30:48;11.30;99.90
23556;DHT22;11956;53.184;8.578;2023-03-23T07:33:50;11.20;99.90
23556;DHT22;11956;53.184;8.578;2023-03-23T07:36:51;11.10;99.90
23556;DHT22;11956;53.184;8.578;2023-03-23T07:39:53;11.00;99.90
23556;DHT22;11956;53.184;8.578;2023-03-23T07:42:56;10.90;99.90
23556;DHT22;11956;53.184;8.578;2023-03-23T07:46:13;10.90;99.90
23556;DHT22;11956;53.184;8.578;2023-03-23T07:49:36;10.80;99.90
23556;DHT22;11956;53.184;8.578;2023-03-23T07:52:57;10.90;99.90
23556;DHT22;11956;53.184;8.578;2023-03-23T07:56:02;11.00;99.90
23556;DHT22;11956;53.184;8.578;2023-03-23T07:59:24;11.00;99.90
23556;DHT22;11956;53.184;8.578;2023-03-23T08:02:26;11.00;99.90
23556;DHT22;11956;53.184;8.578;2023-03-23T08:05:50;11.00;99.90
23556;DHT22;11956;53.184;8.578;2023-03-23T08:09:10;11.20;99.90
23556;DHT22;11956;53.184;8.578;2023-03-23T08:12:33;11.20;99.90
23556;DHT22;11956;53.184;8.578;2023-03-23T08:15:53;11.20;99.90
23556;DHT22;11956;53.184;8.578;2023-03-23T08:19:13;11.50;99.90
23556;DHT22;11956;53.184;8.578;2023-03-23T08:22:54;11.70;99.90
23556;DHT22;11956;53.184;8.578;2023-03-23T08:26:20;12.10;99.90
23556;DHT22;11956;53.184;8.578;2023-03-23T08:29:50;12.50;99.90
23556;DHT22;11956;53.184;8.578;2023-03-23T08:33:18;12.50;99.90
23556;DHT22;11956;53.184;8.578;2023-03-23T08:36:21;12.60;99.90
23556;DHT22;11956;53.184;8.578;2023-03-23T08:39:25;12.80;99.90
23556;DHT22;11956;53.184;8.578;2023-03-23T08:42:46;12.70;99.90
23556;DHT22;11956;53.184;8.578;2023-03-23T08:46:08;12.70;99.90
23556;DHT22;11956;53.184;8.578;2023-03-23T08:49:43;12.70;99.90
23556;DHT22;11956;53.184;8.578;2023-03-23T08:53:05;12.90;99.90
23556;DHT22;11956;53.184;8.578;2023-03-23T08:56:18;13.40;99.90
23556;DHT22;11956;53.184;8.578;2023-03-23T08:59:48;13.90;99.90
23556;DHT22;11956;53.184;8.578;2023-03-23T09:03:09;14.80;99.90
23556;DHT22;11956;53.184;8.578;2023-03-23T09:06:26;15.60;99.90
23556;DHT22;11956;53.184;8.578;2023-03-23T09:09:27;15.60;99.90
23556;DHT22;11956;53.184;8.578;2023-03-23T09:12:28;15.50;99.90
23556;DHT22;11956;53.184;8.578;2023-03-23T09:15:30;15.60;99.90
23556;DHT22;11956;53.184;8.578;2023-03-23T09:18:32;15.30;99.90
23556;DHT22;11956;53.184;8.578;2023-03-23T09:21:33;15.10;99.90
23556;DHT22;11956;53.184;8.578;2023-03-23T09:24:34;15.10;99.90
23556;DHT22;11956;53.184;8.578;2023-03-23T09:27:36;15.20;99.90
23556;DHT22;11956;53.184;8.578;2023-03-23T09:30:40;15.20;99.90
23556;DHT22;11956;53.184;8.578;2023-03-23T09:33:41;15.40;99.90
23556;DHT22;11956;53.184;8.578;2023-03-23T09:36:43;15.60;99.90
23556;DHT22;11956;53.184;8.578;2023-03-23T09:39:44;15.60;99.90
23556;DHT22;11956;53.184;8.578;2023-03-23T09:42:57;15.30;99.90
23556;DHT22;11956;53.184;8.578;2023-03-23T09:50:24;15.30;99.90
23556;DHT22;11956;53.184;8.578;2023-03-23T09:53:48;15.40;99.90
23556;DHT22;11956;53.184;8.578;2023-03-23T09:57:00;15.30;99.90
23556;DHT22;11956;53.184;8.578;2023-03-23T10:00:12;15.40;99.90
23556;DHT22;11956;53.184;8.578;2023-03-23T10:03:36;15.20;99.90
23556;DHT22;11956;53.184;8.578;2023-03-23T10:06:39;15.10;99.90
23556;DHT22;11956;53.184;8.578;2023-03-23T10:09:42;15.40;99.90
23556;DHT22;11956;53.184;8.578;2023-03-23T10:13:06;15.90;99.90
23556;DHT22;11956;53.184;8.578;2023-03-23T10:16:28;16.20;99.90
23556;DHT22;11956;53.184;8.578;2023-03-23T10:19:47;16.10;99.90
23556;DHT22;11956;53.184;8.578;2023-03-23T10:27:05;15.40;99.90
23556;DHT22;11956;53.184;8.578;2023-03-23T10:33:52;15.20;99.90
23556;DHT22;11956;53.184;8.578;2023-03-23T10:37:05;15.20;99.90
23556;DHT22;11956;53.184;8.578;2023-03-23T10:40:27;15.20;99.90
23556;DHT22;11956;53.184;8.578;2023-03-23T10:43:30;15.30;99.90
23556;DHT22;11956;53.184;8.578;2023-03-23T10:49:54;15.50;99.90
23556;DHT22;11956;53.184;8.578;2023-03-23T10:52:59;15.20;99.90
23556;DHT22;11956;53.184;8.578;2023-03-23T10:56:02;15.10;99.90
23556;DHT22;11956;53.184;8.578;2023-03-23T10:59:39;15.40;99.90
23556;DHT22;11956;53.184;8.578;2023-03-23T11:02:39;15.90;99.90
23556;DHT22;11956;53.184;8.578;2023-03-23T11:05:43;16.00;99.90
23556;DHT22;11956;53.184;8.578;2023-03-23T11:09:00;16.10;99.90
23556;DHT22;11956;53.184;8.578;2023-03-23T11:12:17;15.70;99.90
23556;DHT22;11956;53.184;8.578;2023-03-23T11:15:39;15.50;99.90
23556;DHT22;11956;53.184;8.578;2023-03-23T11:18:42;15.50;99.90
23556;DHT22;11956;53.184;8.578;2023-03-23T11:21:52;15.50;99.90
23556;DHT22;11956;53.184;8.578;2023-03-23T11:24:58;15.60;99.90
23556;DHT22;11956;53.184;8.578;2023-03-23T11:28:01;15.40;99.90
23556;DHT22;11956;53.184;8.578;2023-03-23T11:31:04;15.30;99.90
23556;DHT22;11956;53.184;8.578;2023-03-23T11:34:15;15.40;99.90
23556;DHT22;11956;53.184;8.578;2023-03-23T11:37:42;15.70;99.90
23556;DHT22;11956;53.184;8.578;2023-03-23T11:40:49;16.10;99.90
23556;DHT22;11956;53.184;8.578;2023-03-23T11:43:52;16.20;99.90
23556;DHT22;11956;53.184;8.578;2023-03-23T11:47:04;16.20;99.90
23556;DHT22;11956;53.184;8.578;2023-03-23T11:50:27;16.10;99.90
23556;DHT22;11956;53.184;8.578;2023-03-23T11:56:54;15.90;99.90
23556;DHT22;11956;53.184;8.578;2023-03-23T11:59:56;16.10;99.90
23556;DHT22;11956;53.184;8.578;2023-03-23T12:03:07;16.10;99.90
23556;DHT22;11956;53.184;8.578;2023-03-23T12:17:15;16.20;99.90
23556;DHT22;11956;53.184;8.578;2023-03-23T12:27:38;16.20;99.90
23556;DHT22;11956;53.184;8.578;2023-03-23T12:31:03;16.30;99.90
23556;DHT22;11956;53.184;8.578;2023-03-23T12:34:30;16.50;99.90
23556;DHT22;11956;53.184;8.578;2023-03-23T12:41:45;16.60;99.90
23556;DHT22;11956;53.184;8.578;2023-03-23T12:44:53;16.60;99.90
23556;DHT22;11956;53.184;8.578;2023-03-23T12:48:01;16.70;99.90
23556;DHT22;11956;53.184;8.578;2023-03-23T12:55:05;17.20;99.90
23556;DHT22;11956;53.184;8.578;2023-03-23T12:58:32;17.30;99.90
23556;DHT22;11956;53.184;8.578;2023-03-23T13:01:44;17.10;99.90
23556;DHT22;11956;53.184;8.578;2023-03-23T13:04:57;17.00;99.90
23556;DHT22;11956;53.184;8.578;2023-03-23T13:08:21;17.00;99.90
23556;DHT22;11956;53.184;8.578;2023-03-23T13:11:36;17.00;99.90
23556;DHT22;11956;53.184;8.578;2023-03-23T13:18:30;17.20;99.90
23556;DHT22;11956;53.184;8.578;2023-03-23T13:32:18;17.20;99.90
23556;DHT22;11956;53.184;8.578;2023-03-23T13:35:20;17.00;99.90
23556;DHT22;11956;53.184;8.578;2023-03-23T13:38:27;16.90;99.90
23556;DHT22;11956;53.184;8.578;2023-03-23T13:41:31;17.10;99.90
23556;DHT22;11956;53.184;8.578;2023-03-23T13:45:02;17.10;99.90
23556;DHT22;11956;53.184;8.578;2023-03-23T13:51:26;17.00;99.90
23556;DHT22;11956;53.184;8.578;2023-03-23T13:54:44;16.90;99.90
23556;DHT22;11956;53.184;8.578;2023-03-23T13:57:51;16.70;99.90
23556;DHT22;11956;53.184;8.578;2023-03-23T14:04:19;16.30;99.90
23556;DHT22;11956;53.184;8.578;2023-03-23T14:07:20;16.00;99.90
23556;DHT22;11956;53.184;8.578;2023-03-23T14:10:22;15.70;99.90
23556;DHT22;11956;53.184;8.578;2023-03-23T14:13:28;15.60;99.90
23556;DHT22;11956;53.184;8.578;2023-03-23T14:16:49;15.80;99.90
23556;DHT22;11956;53.184;8.578;2023-03-23T14:19:57;15.90;99.90
23556;DHT22;11956;53.184;8.578;2023-03-23T14:23:19;16.00;99.90
23556;DHT22;11956;53.184;8.578;2023-03-23T14:26:21;16.00;99.90
23556;DHT22;11956;53.184;8.578;2023-03-23T14:29:23;15.90;99.90
23556;DHT22;11956;53.184;8.578;2023-03-23T14:32:24;15.80;99.90
23556;DHT22;11956;53.184;8.578;2023-03-23T14:35:30;15.80;99.90
23556;DHT22;11956;53.184;8.578;2023-03-23T14:38:33;15.90;99.90
23556;DHT22;11956;53.184;8.578;2023-03-23T14:41:35;15.90;99.90
23556;DHT22;11956;53.184;8.578;2023-03-23T14:44:45;16.10;99.90
23556;DHT22;11956;53.184;8.578;2023-03-23T14:47:53;16.30;99.90
23556;DHT22;11956;53.184;8.578;2023-03-23T14:50:59;16.40;99.90
23556;DHT22;11956;53.184;8.578;2023-03-23T14:54:08;16.30;99.90
23556;DHT22;11956;53.184;8.578;2023-03-23T14:57:19;16.30;99.90
23556;DHT22;11956;53.184;8.578;2023-03-23T15:00:35;16.30;99.90
23556;DHT22;11956;53.184;8.578;2023-03-23T15:03:44;16.20;99.90
23556;DHT22;11956;53.184;8.578;2023-03-23T15:06:55;16.20;99.90
23556;DHT22;11956;53.184;8.578;2023-03-23T15:09:59;16.30;99.90
23556;DHT22;11956;53.184;8.578;2023-03-23T15:13:01;16.40;99.90
23556;DHT22;11956;53.184;8.578;2023-03-23T15:16:27;16.40;99.90
23556;DHT22;11956;53.184;8.578;2023-03-23T15:19:37;16.40;99.90
23556;DHT22;11956;53.184;8.578;2023-03-23T15:22:46;16.50;99.90
23556;DHT22;11956;53.184;8.578;2023-03-23T15:25:51;16.60;99.90
23556;DHT22;11956;53.184;8.578;2023-03-23T15:35:26;16.50;99.90
23556;DHT22;11956;53.184;8.578;2023-03-23T15:38:32;16.30;99.90
23556;DHT22;11956;53.184;8.578;2023-03-23T15:41:34;16.20;99.90
23556;DHT22;11956;53.184;8.578;2023-03-23T15:45:02;16.20;99.90
23556;DHT22;11956;53.184;8.578;2023-03-23T15:48:13;16.10;99.90
23556;DHT22;11956;53.184;8.578;2023-03-23T15:51:16;16.10;99.90
23556;DHT22;11956;53.184;8.578;2023-03-23T15:54:17;16.20;99.90
23556;DHT22;11956;53.184;8.578;2023-03-23T15:57:18;16.10;99.90
23556;DHT22;11956;53.184;8.578;2023-03-23T16:00:21;16.00;99.90
23556;DHT22;11956;53.184;8.578;2023-03-23T16:03:25;15.80;99.90
23556;DHT22;11956;53.184;8.578;2023-03-23T16:06:31;15.80;99.90
23556;DHT22;11956;53.184;8.578;2023-03-23T16:09:33;15.70;99.90
23556;DHT22;11956;53.184;8.578;2023-03-23T16:12:34;15.70;99.90
23556;DHT22;11956;53.184;8.578;2023-03-23T16:15:35;15.70;99.90
23556;DHT22;11956;53.184;8.578;2023-03-23T16:18:36;15.60;99.90
23556;DHT22;11956;53.184;8.578;2023-03-23T16:21:36;15.50;99.90
23556;DHT22;11956;53.184;8.578;2023-03-23T16:24:37;15.30;99.90
23556;DHT22;11956;53.184;8.578;2023-03-23T16:27:40;15.00;99.90
23556;DHT22;11956;53.184;8.578;2023-03-23T16:30:43;14.90;99.90
23556;DHT22;11956;53.184;8.578;2023-03-23T16:33:44;14.80;99.90
23556;DHT22;11956;53.184;8.578;2023-03-23T16:36:45;14.80;99.90
23556;DHT22;11956;53.184;8.578;2023-03-23T16:39:46;14.70;99.90
23556;DHT22;11956;53.184;8.578;2023-03-23T16:42:47;14.60;99.90
23556;DHT22;11956;53.184;8.578;2023-03-23T16:45:54;14.50;99.90
23556;DHT22;11956;53.184;8.578;2023-03-23T16:48:56;14.40;99.90
23556;DHT22;11956;53.184;8.578;2023-03-23T16:51:57;14.30;99.90
23556;DHT22;11956;53.184;8.578;2023-03-23T16:54:58;14.10;99.90
23556;DHT22;11956;53.184;8.578;2023-03-23T16:57:59;14.10;99.90
23556;DHT22;11956;53.184;8.578;2023-03-23T17:01:00;14.00;99.90
23556;DHT22;11956;53.184;8.578;2023-03-23T17:04:03;13.80;99.90
23556;DHT22;11956;53.184;8.578;2023-03-23T17:07:04;13.70;99.90
23556;DHT22;11956;53.184;8.578;2023-03-23T17:10:06;13.60;99.90
23556;DHT22;11956;53.184;8.578;2023-03-23T17:13:08;13.50;99.90
23556;DHT22;11956;53.184;8.578;2023-03-23T17:16:10;13.40;99.90
23556;DHT22;11956;53.184;8.578;2023-03-23T17:19:12;13.30;99.90
23556;DHT22;11956;53.184;8.578;2023-03-23T17:22:16;13.20;99.90
23556;DHT22;11956;53.184;8.578;2023-03-23T17:25:18;13.10;99.90
23556;DHT22;11956;53.184;8.578;2023-03-23T17:28:18;13.10;99.90
23556;DHT22;11956;53.184;8.578;2023-03-23T17:31:19;12.90;99.90
23556;DHT22;11956;53.184;8.578;2023-03-23T17:34:20;12.80;99.90
23556;DHT22;11956;53.184;8.578;2023-03-23T17:37:21;12.70;99.90
23556;DHT22;11956;53.184;8.578;2023-03-23T17:40:22;12.70;99.90
23556;DHT22;11956;53.184;8.578;2023-03-23T17:43:23;12.60;99.90
23556;DHT22;11956;53.184;8.578;2023-03-23T17:46:24;12.50;99.90
23556;DHT22;11956;53.184;8.578;2023-03-23T17:49:26;12.40;99.90
23556;DHT22;11956;53.184;8.578;2023-03-23T17:52:29;12.40;99.90
23556;DHT22;11956;53.184;8.578;2023-03-23T17:55:30;12.30;99.90
23556;DHT22;11956;53.184;8.578;2023-03-23T17:58:31;12.30;99.90
23556;DHT22;11956;53.184;8.578;2023-03-23T18:01:33;12.20;99.90
23556;DHT22;11956;53.184;8.578;2023-03-23T18:04:33;12.30;99.90
23556;DHT22;11956;53.184;8.578;2023-03-23T18:07:35;12.30;99.90
23556;DHT22;11956;53.184;8.578;2023-03-23T18:10:38;12.40;99.90
23556;DHT22;11956;53.184;8.578;2023-03-23T18:13:39;12.40;99.90
23556;DHT22;11956;53.184;8.578;2023-03-23T18:16:40;12.40;99.90
23556;DHT22;11956;53.184;8.578;2023-03-23T18:19:43;12.40;99.90
23556;DHT22;11956;53.184;8.578;2023-03-23T18:22:46;12.40;99.90
23556;DHT22;11956;53.184;8.578;2023-03-23T18:25:49;12.40;99.90
23556;DHT22;11956;53.184;8.578;2023-03-23T18:28:50;12.20;99.90
23556;DHT22;11956;53.184;8.578;2023-03-23T18:31:51;12.30;99.90
23556;DHT22;11956;53.184;8.578;2023-03-23T18:34:52;12.30;99.90
23556;DHT22;11956;53.184;8.578;2023-03-23T18:37:53;12.30;99.90
23556;DHT22;11956;53.184;8.578;2023-03-23T18:40:54;12.30;99.90
23556;DHT22;11956;53.184;8.578;2023-03-23T18:43:55;12.20;99.90
23556;DHT22;11956;53.184;8.578;2023-03-23T18:46:56;12.10;99.90
23556;DHT22;11956;53.184;8.578;2023-03-23T18:49:57;12.10;99.90
23556;DHT22;11956;53.184;8.578;2023-03-23T18:52:59;12.10;99.90
23556;DHT22;11956;53.184;8.578;2023-03-23T18:56:14;12.10;99.90
23556;DHT22;11956;53.184;8.578;2023-03-23T18:59:16;12.10;99.90
23556;DHT22;11956;53.184;8.578;2023-03-23T19:02:18;12.10;99.90
23556;DHT22;11956;53.184;8.578;2023-03-23T19:05:19;12.10;99.90
23556;DHT22;11956;53.184;8.578;2023-03-23T19:08:20;11.90;99.90
23556;DHT22;11956;53.184;8.578;2023-03-23T19:11:22;11.90;99.90
23556;DHT22;11956;53.184;8.578;2023-03-23T19:14:27;11.90;99.90
23556;DHT22;11956;53.184;8.578;2023-03-23T19:17:28;11.90;99.90
23556;DHT22;11956;53.184;8.578;2023-03-23T19:20:28;11.80;99.90
23556;DHT22;11956;53.184;8.578;2023-03-23T19:23:30;11.80;99.90
23556;DHT22;11956;53.184;8.578;2023-03-23T19:26:37;11.80;99.90
23556;DHT22;11956;53.184;8.578;2023-03-23T19:29:39;11.80;99.90
23556;DHT22;11956;53.184;8.578;2023-03-23T19:32:40;11.80;99.90
23556;DHT22;11956;53.184;8.578;2023-03-23T19:35:41;11.70;99.90
23556;DHT22;11956;53.184;8.578;2023-03-23T19:38:43;11.70;99.90
23556;DHT22;11956;53.184;8.578;2023-03-23T19:41:44;11.60;99.90
23556;DHT22;11956;53.184;8.578;2023-03-23T19:44:45;11.60;99.90
23556;DHT22;11956;53.184;8.578;2023-03-23T19:47:46;11.60;99.90
23556;DHT22;11956;53.184;8.578;2023-03-23T19:50:49;11.50;99.90
23556;DHT22;11956;53.184;8.578;2023-03-23T19:53:54;11.50;99.90
23556;DHT22;11956;53.184;8.578;2023-03-23T19:56:57;11.40;99.90
23556;DHT22;11956;53.184;8.578;2023-03-23T19:59:58;11.30;99.90
23556;DHT22;11956;53.184;8.578;2023-03-23T20:02:59;11.40;99.90
23556;DHT22;11956;53.184;8.578;2023-03-23T20:06:01;11.50;99.90
23556;DHT22;11956;53.184;8.578;2023-03-23T20:09:08;11.60;99.90
23556;DHT22;11956;53.184;8.578;2023-03-23T20:12:09;11.60;99.90
23556;DHT22;11956;53.184;8.578;2023-03-23T20:15:10;11.60;99.90
23556;DHT22;11956;53.184;8.578;2023-03-23T20:18:10;11.60;99.90
23556;DHT22;11956;53.184;8.578;2023-03-23T20:21:16;11.60;99.90
23556;DHT22;11956;53.184;8.578;2023-03-23T20:24:21;11.60;99.90
23556;DHT22;11956;53.184;8.578;2023-03-23T20:27:22;11.60;99.90
23556;DHT22;11956;53.184;8.578;2023-03-23T20:30:23;11.60;99.90
23556;DHT22;11956;53.184;8.578;2023-03-23T20:33:24;11.60;99.90
23556;DHT22;11956;53.184;8.578;2023-03-23T20:36:30;11.50;99.90
23556;DHT22;11956;53.184;8.578;2023-03-23T20:39:42;11.40;99.90
23556;DHT22;11956;53.184;8.578;2023-03-23T20:42:46;11.40;99.90
23556;DHT22;11956;53.184;8.578;2023-03-23T20:45:48;11.40;99.90
23556;DHT22;11956;53.184;8.578;2023-03-23T20:48:49;11.30;99.90
23556;DHT22;11956;53.184;8.578;2023-03-23T20:51:51;11.40;99.90
23556;DHT22;11956;53.184;8.578;2023-03-23T20:54:53;11.40;99.90
23556;DHT22;11956;53.184;8.578;2023-03-23T20:57:55;11.40;99.90
23556;DHT22;11956;53.184;8.578;2023-03-23T21:00:57;11.40;99.90
23556;DHT22;11956;53.184;8.578;2023-03-23T21:04:00;11.40;99.90
23556;DHT22;11956;53.184;8.578;2023-03-23T21:07:02;11.30;99.90
23556;DHT22;11956;53.184;8.578;2023-03-23T21:10:03;11.30;99.90
23556;DHT22;11956;53.184;8.578;2023-03-23T21:13:05;11.30;99.90
23556;DHT22;11956;53.184;8.578;2023-03-23T21:16:06;11.20;99.90
23556;DHT22;11956;53.184;8.578;2023-03-23T21:19:08;11.20;99.90